Time;durP1;ratioP1;P1;durP2;ratioP2;P2;SDS_P1;SDS_P2;PMS_P1;PMS_P2;Temp;Humidity;BMP_temperature;BMP_pressure;BME280_temperature;BME280_humidity;BME280_pressure;Samples;Min_cycle;Max_cycle;Signal;HPM_P1;HPM_P2
2024/03/09 00:00:39;;;;;;;13.32;2.97;;;;;;;;;;5073921;28;20051;-37
2024/03/09 00:03:07;;;;;;;19.42;3.00;;;;;;;;;;5073826;28;20687;-39
2024/03/09 00:05:34;;;;;;;9.85;2.65;;;;;;;;;;5072947;28;20428;-37
2024/03/09 00:08:03;;;;;;;10.18;2.75;;;;;;;;;;5073957;28;20036;-40
2024/03/09 00:10:30;;;;;;;8.82;2.50;;;;;;;;;;5071388;28;20040;-39
2024/03/09 00:12:57;;;;;;;9.55;2.63;;;;;;;;;;5074399;28;20474;-40
2024/03/09 00:15:25;;;;;;;6.28;2.10;;;;;;;;;;5073579;28;20029;-37
2024/03/09 00:17:53;;;;;;;6.95;2.45;;;;;;;;;;5071025;28;20032;-37
2024/03/09 00:20:26;;;;;;;10.93;2.65;;;;;;;;;;5073881;28;20461;-37
2024/03/09 00:22:55;;;;;;;12.32;2.88;;;;;;;;;;5071188;28;20086;-37
2024/03/09 00:25:22;;;;;;;14.52;3.30;;;;;;;;;;5070031;28;20039;-37
2024/03/09 00:27:50;;;;;;;16.40;4.57;;;;;;;;;;5073084;28;20021;-39
2024/03/09 00:30:20;;;;;;;14.55;3.80;;;;;;;;;;5073711;28;20043;-36
2024/03/09 00:32:51;;;;;;;14.95;4.20;;;;;;;;;;5079538;28;20523;-39
2024/03/09 00:35:18;;;;;;;14.48;3.75;;;;;;;;;;5094090;28;20024;-38
2024/03/09 00:37:45;;;;;;;15.05;3.92;;;;;;;;;;5093047;28;20032;-39
2024/03/09 00:40:12;;;;;;;14.00;4.10;;;;;;;;;;5094297;28;20047;-39
2024/03/09 00:42:42;;;;;;;14.65;5.05;;;;;;;;;;5093709;28;20039;-37
2024/03/09 00:45:11;;;;;;;20.38;5.05;;;;;;;;;;5094215;28;20028;-39
2024/03/09 00:47:38;;;;;;;16.05;4.32;;;;;;;;;;5075388;28;20397;-36
2024/03/09 00:50:09;;;;;;;18.77;4.78;;;;;;;;;;5093758;28;20028;-37
2024/03/09 00:52:38;;;;;;;20.02;4.85;;;;;;;;;;5093446;28;20546;-37
2024/03/09 00:55:14;;;;;;;33.20;5.28;;;;;;;;;;5092275;28;20040;-39
2024/03/09 00:57:50;;;;;;;19.27;5.63;;;;;;;;;;5090998;28;20473;-39
2024/03/09 01:00:23;;;;;;;16.27;4.70;;;;;;;;;;5093009;28;20055;-36
2024/03/09 01:02:50;;;;;;;19.50;5.13;;;;;;;;;;5091220;28;20035;-37
2024/03/09 01:05:22;;;;;;;22.85;4.72;;;;;;;;;;5091777;28;20603;-39
2024/03/09 01:07:52;;;;;;;20.70;5.15;;;;;;;;;;5098648;28;20085;-39
2024/03/09 01:10:19;;;;;;;15.65;5.88;;;;;;;;;;5106937;28;20031;-39
2024/03/09 01:12:47;;;;;;;17.23;5.32;;;;;;;;;;5113975;28;20030;-39
2024/03/09 01:15:14;;;;;;;20.85;5.13;;;;;;;;;;5113894;28;20032;-39
2024/03/09 01:17:41;;;;;;;14.27;5.82;;;;;;;;;;5108867;28;20065;-37
2024/03/09 01:20:09;;;;;;;20.13;5.93;;;;;;;;;;5072631;28;20046;-36
2024/03/09 01:22:36;;;;;;;21.25;7.15;;;;;;;;;;5093095;28;20031;-37
2024/03/09 01:25:03;;;;;;;19.88;6.05;;;;;;;;;;5093491;28;20035;-37
2024/03/09 01:27:31;;;;;;;18.83;6.10;;;;;;;;;;5092775;28;20110;-39
2024/03/09 01:30:01;;;;;;;12.45;5.07;;;;;;;;;;5093414;28;20476;-39
2024/03/09 01:32:28;;;;;;;11.70;4.38;;;;;;;;;;5099238;28;20027;-40
2024/03/09 01:34:56;;;;;;;13.57;4.57;;;;;;;;;;5112928;28;20716;-40
2024/03/09 01:37:23;;;;;;;13.40;4.85;;;;;;;;;;5089734;28;20176;-39
2024/03/09 01:39:50;;;;;;;8.77;4.75;;;;;;;;;;5103156;28;20020;-36
2024/03/09 01:42:21;;;;;;;12.38;5.13;;;;;;;;;;5091916;28;20480;-37
2024/03/09 01:44:48;;;;;;;19.20;4.75;;;;;;;;;;5092048;28;20031;-39
2024/03/09 01:47:21;;;;;;;20.42;6.00;;;;;;;;;;5095314;28;20043;-39
2024/03/09 01:49:49;;;;;;;20.15;5.95;;;;;;;;;;5092108;28;20028;-36
2024/03/09 01:52:17;;;;;;;24.88;6.32;;;;;;;;;;5096100;28;20023;-39
2024/03/09 01:54:44;;;;;;;21.73;6.28;;;;;;;;;;5094649;28;20028;-39
2024/03/09 01:57:13;;;;;;;19.42;5.70;;;;;;;;;;5095308;28;20039;-37
2024/03/09 01:59:41;;;;;;;15.18;4.80;;;;;;;;;;5077029;28;20023;-39
2024/03/09 02:02:09;;;;;;;16.35;4.35;;;;;;;;;;5073764;28;20089;-36
2024/03/09 02:04:37;;;;;;;14.48;3.47;;;;;;;;;;5095902;28;20015;-37
2024/03/09 02:07:04;;;;;;;20.63;3.00;;;;;;;;;;5112619;28;20027;-36
2024/03/09 02:09:31;;;;;;;16.10;3.13;;;;;;;;;;5112720;28;20031;-36
2024/03/09 02:12:04;;;;;;;17.13;3.13;;;;;;;;;;5112630;28;20115;-39
2024/03/09 02:14:33;;;;;;;17.48;3.50;;;;;;;;;;5097059;28;20042;-36
2024/03/09 02:17:07;;;;;;;13.10;4.18;;;;;;;;;;5091534;28;20094;-39
2024/03/09 02:19:41;;;;;;;11.98;3.58;;;;;;;;;;5092176;28;20085;-39
2024/03/09 02:22:12;;;;;;;9.43;3.30;;;;;;;;;;5092359;28;20028;-39
2024/03/09 02:24:43;;;;;;;8.25;3.20;;;;;;;;;;5092206;28;20107;-39
2024/03/09 02:27:10;;;;;;;6.60;3.10;;;;;;;;;;5091924;28;20569;-39
2024/03/09 02:29:39;;;;;;;10.13;3.20;;;;;;;;;;5092295;28;20081;-39
2024/03/09 02:32:06;;;;;;;11.07;2.97;;;;;;;;;;5091991;28;20031;-39
2024/03/09 02:34:33;;;;;;;7.13;2.83;;;;;;;;;;5091874;28;20507;-37
2024/03/09 02:37:00;;;;;;;6.95;2.78;;;;;;;;;;5092116;28;20059;-36
2024/03/09 02:39:28;;;;;;;8.20;3.13;;;;;;;;;;5092076;28;20544;-36
2024/03/09 02:41:58;;;;;;;7.75;2.58;;;;;;;;;;5092030;28;20036;-36
2024/03/09 02:44:26;;;;;;;9.75;2.60;;;;;;;;;;5092013;28;20126;-36
2024/03/09 02:46:53;;;;;;;8.40;2.75;;;;;;;;;;5091697;28;20028;-36
2024/03/09 02:49:20;;;;;;;7.32;2.10;;;;;;;;;;5091951;28;20028;-36
2024/03/09 02:51:47;;;;;;;4.55;1.80;;;;;;;;;;5109504;28;20035;-36
2024/03/09 02:54:15;;;;;;;5.60;1.63;;;;;;;;;;5111686;28;20072;-36
2024/03/09 02:56:42;;;;;;;5.45;1.63;;;;;;;;;;5111932;28;20102;-37
2024/03/09 02:59:09;;;;;;;3.55;1.48;;;;;;;;;;5112191;28;20045;-36
2024/03/09 03:01:36;;;;;;;2.42;1.23;;;;;;;;;;5111993;28;20027;-36
2024/03/09 03:04:03;;;;;;;3.42;1.25;;;;;;;;;;5111970;28;20035;-39
2024/03/09 03:06:32;;;;;;;4.35;1.55;;;;;;;;;;5111939;28;20032;-41
2024/03/09 03:09:01;;;;;;;6.50;1.25;;;;;;;;;;5111795;28;20524;-39
2024/03/09 03:11:28;;;;;;;4.00;1.63;;;;;;;;;;5111768;28;20024;-39
2024/03/09 03:13:55;;;;;;;6.93;1.50;;;;;;;;;;5111395;28;20046;-39
2024/03/09 03:16:29;;;;;;;2.95;1.15;;;;;;;;;;5112089;28;20023;-39
2024/03/09 03:19:00;;;;;;;3.85;1.40;;;;;;;;;;5111739;28;20432;-39
2024/03/09 03:21:28;;;;;;;3.55;1.38;;;;;;;;;;5111982;28;20016;-39
2024/03/09 03:23:56;;;;;;;2.40;1.05;;;;;;;;;;5111678;28;20489;-39
2024/03/09 03:26:24;;;;;;;3.35;1.08;;;;;;;;;;5111561;28;20477;-39
2024/03/09 03:28:55;;;;;;;2.75;1.13;;;;;;;;;;5099774;28;20092;-39
2024/03/09 03:31:22;;;;;;;4.53;1.10;;;;;;;;;;5118716;28;20473;-39
2024/03/09 03:33:49;;;;;;;2.50;1.00;;;;;;;;;;5118379;28;20058;-39
2024/03/09 03:36:20;;;;;;;2.40;1.00;;;;;;;;;;5111496;28;20032;-36
2024/03/09 03:38:47;;;;;;;5.13;1.30;;;;;;;;;;5098048;28;20020;-36
2024/03/09 03:41:15;;;;;;;2.70;1.08;;;;;;;;;;5098208;28;20024;-36
2024/03/09 03:43:45;;;;;;;4.35;1.10;;;;;;;;;;5098105;28;20028;-37
2024/03/09 03:46:13;;;;;;;2.50;1.00;;;;;;;;;;5097926;28;20020;-36
2024/03/09 03:48:40;;;;;;;3.90;1.45;;;;;;;;;;5097902;28;20035;-37
2024/03/09 03:51:07;;;;;;;3.72;1.30;;;;;;;;;;5098116;28;20444;-36
2024/03/09 03:53:35;;;;;;;4.60;1.15;;;;;;;;;;5097974;28;20096;-37
2024/03/09 03:56:02;;;;;;;3.63;1.10;;;;;;;;;;5097774;28;20036;-37
2024/03/09 03:58:29;;;;;;;2.38;1.00;;;;;;;;;;5097932;28;20030;-36
2024/03/09 04:00:57;;;;;;;2.65;1.23;;;;;;;;;;5098007;28;20085;-36
2024/03/09 04:03:29;;;;;;;4.38;1.42;;;;;;;;;;5097640;28;20035;-37
2024/03/09 04:05:56;;;;;;;2.63;0.90;;;;;;;;;;5097593;28;20040;-39
2024/03/09 04:08:23;;;;;;;5.30;1.20;;;;;;;;;;5097945;28;20263;-39
2024/03/09 04:10:50;;;;;;;3.30;1.10;;;;;;;;;;5097405;28;20107;-39
2024/03/09 04:13:23;;;;;;;2.95;1.13;;;;;;;;;;5097808;28;20024;-39
2024/03/09 04:15:51;;;;;;;6.15;1.00;;;;;;;;;;5097671;28;20027;-39
2024/03/09 04:18:18;;;;;;;3.60;1.00;;;;;;;;;;5079528;28;20081;-39
2024/03/09 04:20:46;;;;;;;3.85;0.93;;;;;;;;;;5097705;28;20027;-39
2024/03/09 04:23:21;;;;;;;3.08;0.93;;;;;;;;;;5097530;28;20039;-39
2024/03/09 04:25:50;;;;;;;4.50;0.98;;;;;;;;;;5097461;28;20036;-39
2024/03/09 04:28:20;;;;;;;4.10;1.08;;;;;;;;;;5097496;28;20493;-39
2024/03/09 04:30:48;;;;;;;1.85;0.73;;;;;;;;;;5079167;28;20058;-39
2024/03/09 04:33:15;;;;;;;4.18;0.93;;;;;;;;;;5097415;28;20040;-39
2024/03/09 04:35:43;;;;;;;1.92;0.77;;;;;;;;;;5097505;28;20040;-39
2024/03/09 04:38:10;;;;;;;2.90;1.10;;;;;;;;;;5096901;28;20485;-39
2024/03/09 04:40:37;;;;;;;2.58;1.08;;;;;;;;;;5093680;28;20020;-39
2024/03/09 04:43:05;;;;;;;2.25;1.00;;;;;;;;;;5094252;28;20021;-39
2024/03/09 04:45:33;;;;;;;2.00;1.00;;;;;;;;;;5094139;28;20101;-39
2024/03/09 04:48:00;;;;;;;3.25;1.30;;;;;;;;;;5094085;28;20076;-39
2024/03/09 04:50:31;;;;;;;3.05;1.08;;;;;;;;;;5094109;28;20043;-39
2024/03/09 04:52:58;;;;;;;2.40;0.90;;;;;;;;;;5094187;28;20386;-39
2024/03/09 04:55:29;;;;;;;3.28;1.20;;;;;;;;;;5094248;28;20020;-39
2024/03/09 04:57:56;;;;;;;2.85;1.00;;;;;;;;;;5093880;28;20024;-39
2024/03/09 05:00:24;;;;;;;3.53;1.10;;;;;;;;;;5094084;28;20109;-39
2024/03/09 05:02:51;;;;;;;2.33;0.93;;;;;;;;;;5093568;28;20028;-39
2024/03/09 05:05:19;;;;;;;3.85;1.10;;;;;;;;;;5092872;28;20028;-35
2024/03/09 05:07:47;;;;;;;4.55;1.17;;;;;;;;;;5095182;28;20583;-38
2024/03/09 05:10:18;;;;;;;2.35;1.20;;;;;;;;;;5098550;28;20178;-35
2024/03/09 05:12:58;;;;;;;1.55;0.80;;;;;;;;;;5090777;28;20393;-36
2024/03/09 05:15:26;;;;;;;4.03;1.05;;;;;;;;;;5087841;28;20027;-38
2024/03/09 05:17:54;;;;;;;4.15;1.00;;;;;;;;;;5092599;28;20549;-38
2024/03/09 05:20:25;;;;;;;2.80;0.90;;;;;;;;;;5089117;28;20032;-35
2024/03/09 05:22:51;;;;;;;2.33;0.95;;;;;;;;;;5087575;28;20507;-35
2024/03/09 05:25:21;;;;;;;1.70;0.85;;;;;;;;;;5082891;28;20036;-36
2024/03/09 05:27:48;;;;;;;3.42;1.20;;;;;;;;;;5065640;28;20783;-38
2024/03/09 05:30:18;;;;;;;2.20;0.90;;;;;;;;;;5082541;28;20510;-38
2024/03/09 05:33:07;;;;;;;3.42;1.00;;;;;;;;;;5083667;28;20028;-35
2024/03/09 05:35:37;;;;;;;2.63;1.10;;;;;;;;;;5092674;28;20062;-35
2024/03/09 05:38:05;;;;;;;1.73;1.00;;;;;;;;;;5093336;28;20437;-35
2024/03/09 05:40:32;;;;;;;2.33;0.93;;;;;;;;;;5093266;28;20603;-35
2024/03/09 05:43:06;;;;;;;2.53;0.93;;;;;;;;;;5092930;28;20020;-36
2024/03/09 05:45:35;;;;;;;2.35;1.13;;;;;;;;;;5092951;28;20432;-36
2024/03/09 05:48:02;;;;;;;4.55;1.05;;;;;;;;;;5092793;28;20036;-36
2024/03/09 05:50:29;;;;;;;2.35;0.82;;;;;;;;;;5092122;28;20032;-36
2024/03/09 05:52:58;;;;;;;2.78;1.13;;;;;;;;;;5092857;28;20047;-36
2024/03/09 05:55:25;;;;;;;2.08;1.02;;;;;;;;;;5092421;28;20020;-36
2024/03/09 05:57:53;;;;;;;1.73;0.80;;;;;;;;;;5092807;28;20028;-36
2024/03/09 06:00:24;;;;;;;1.77;1.00;;;;;;;;;;5092618;28;20035;-36
2024/03/09 06:02:52;;;;;;;1.77;0.75;;;;;;;;;;5087259;28;20077;-38
2024/03/09 06:05:19;;;;;;;3.30;1.10;;;;;;;;;;5092416;28;20028;-36
2024/03/09 06:07:46;;;;;;;2.05;1.00;;;;;;;;;;5092832;28;20064;-36
2024/03/09 06:10:16;;;;;;;2.50;0.90;;;;;;;;;;5092535;28;20500;-36
2024/03/09 06:12:51;;;;;;;2.80;0.95;;;;;;;;;;5092481;28;20032;-35
2024/03/09 06:15:19;;;;;;;2.83;0.80;;;;;;;;;;5092461;28;20039;-36
2024/03/09 06:17:47;;;;;;;4.32;1.10;;;;;;;;;;5092362;28;20463;-35
2024/03/09 06:20:16;;;;;;;2.97;1.00;;;;;;;;;;5092415;28;20036;-36
2024/03/09 06:22:45;;;;;;;4.75;1.00;;;;;;;;;;5092268;28;20027;-36
2024/03/09 06:25:29;;;;;;;1.48;1.00;;;;;;;;;;5092165;28;20413;-36
2024/03/09 06:27:56;;;;;;;3.75;0.90;;;;;;;;;;5074151;28;20040;-35
2024/03/09 06:30:23;;;;;;;2.42;1.00;;;;;;;;;;5092189;28;20065;-36
2024/03/09 06:32:51;;;;;;;1.83;0.85;;;;;;;;;;5091874;28;20056;-35
2024/03/09 06:35:36;;;;;;;1.80;0.93;;;;;;;;;;5092213;28;20115;-38
2024/03/09 06:38:10;;;;;;;1.92;1.13;;;;;;;;;;5092198;28;20032;-38
2024/03/09 06:40:39;;;;;;;2.03;1.17;;;;;;;;;;5091343;28;20490;-36
2024/03/09 06:43:07;;;;;;;2.40;0.93;;;;;;;;;;5091756;28;20039;-35
2024/03/09 06:45:35;;;;;;;2.72;1.15;;;;;;;;;;5091725;28;20032;-35
2024/03/09 06:48:03;;;;;;;3.85;0.93;;;;;;;;;;5091167;28;20035;-38
2024/03/09 06:50:34;;;;;;;2.47;1.00;;;;;;;;;;5091599;28;20397;-35
2024/03/09 06:53:02;;;;;;;2.70;1.00;;;;;;;;;;5091500;28;20501;-36
2024/03/09 06:55:29;;;;;;;1.85;0.90;;;;;;;;;;5091924;28;20153;-36
2024/03/09 06:58:00;;;;;;;2.03;0.90;;;;;;;;;;5091789;28;20051;-35
2024/03/09 07:00:29;;;;;;;3.35;0.90;;;;;;;;;;5091483;28;20114;-35
2024/03/09 07:02:59;;;;;;;5.07;1.08;;;;;;;;;;5091111;28;20028;-35
2024/03/09 07:05:30;;;;;;;1.75;0.80;;;;;;;;;;5091697;28;20173;-36
2024/03/09 07:08:01;;;;;;;3.93;1.00;;;;;;;;;;5091675;28;20036;-35
2024/03/09 07:10:28;;;;;;;2.10;1.05;;;;;;;;;;5091729;28;20031;-36
2024/03/09 07:12:56;;;;;;;2.60;0.90;;;;;;;;;;5091513;28;20038;-35
2024/03/09 07:15:25;;;;;;;4.47;1.20;;;;;;;;;;5091626;28;20419;-36
2024/03/09 07:17:55;;;;;;;2.70;1.08;;;;;;;;;;5091623;28;20085;-35
2024/03/09 07:20:23;;;;;;;1.83;0.80;;;;;;;;;;5091536;28;20024;-35
2024/03/09 07:22:51;;;;;;;3.97;0.93;;;;;;;;;;5091499;28;20036;-36
2024/03/09 07:25:25;;;;;;;1.80;0.90;;;;;;;;;;5090519;28;20034;-37
2024/03/09 07:27:56;;;;;;;2.75;0.90;;;;;;;;;;5091358;28;20043;-36
2024/03/09 07:30:23;;;;;;;3.50;0.98;;;;;;;;;;5091344;28;20103;-36
2024/03/09 07:32:53;;;;;;;1.67;0.93;;;;;;;;;;5091253;28;20051;-35
2024/03/09 07:35:21;;;;;;;2.20;0.98;;;;;;;;;;5091209;28;20035;-35
2024/03/09 07:37:52;;;;;;;6.07;1.50;;;;;;;;;;5091349;28;20093;-35
2024/03/09 07:40:22;;;;;;;2.10;1.40;;;;;;;;;;5091114;28;20501;-35
2024/03/09 07:42:50;;;;;;;3.13;1.23;;;;;;;;;;5091361;28;20032;-36
2024/03/09 07:45:17;;;;;;;2.78;1.50;;;;;;;;;;5091323;28;20040;-35
2024/03/09 07:47:45;;;;;;;3.75;1.55;;;;;;;;;;5091335;28;20464;-36
2024/03/09 07:50:15;;;;;;;2.15;1.10;;;;;;;;;;5091256;28;20036;-36
2024/03/09 07:52:46;;;;;;;3.03;1.13;;;;;;;;;;5072893;28;20063;-36
2024/03/09 07:55:17;;;;;;;1.80;1.20;;;;;;;;;;5091357;28;20767;-35
2024/03/09 07:58:02;;;;;;;3.17;1.50;;;;;;;;;;5091027;28;20032;-35
2024/03/09 08:00:33;;;;;;;2.45;1.10;;;;;;;;;;5091110;28;20043;-35
2024/03/09 08:03:01;;;;;;;2.42;1.20;;;;;;;;;;5090902;28;20028;-36
2024/03/09 08:05:31;;;;;;;2.53;1.45;;;;;;;;;;5090737;28;20039;-35
2024/03/09 08:08:02;;;;;;;2.42;1.20;;;;;;;;;;5091149;28;20028;-35
2024/03/09 08:10:31;;;;;;;3.03;1.23;;;;;;;;;;5091017;28;20074;-35
2024/03/09 08:12:59;;;;;;;2.50;1.10;;;;;;;;;;5092105;28;20043;-36
2024/03/09 08:15:32;;;;;;;3.45;1.20;;;;;;;;;;5093777;28;20056;-35
2024/03/09 08:17:59;;;;;;;1.90;1.10;;;;;;;;;;5094871;28;20032;-35
2024/03/09 08:20:26;;;;;;;3.85;1.20;;;;;;;;;;5093891;28;20031;-38
2024/03/09 08:22:54;;;;;;;2.47;1.10;;;;;;;;;;5094814;28;20036;-38
2024/03/09 08:25:25;;;;;;;2.50;1.15;;;;;;;;;;5094861;28;20088;-38
2024/03/09 08:27:52;;;;;;;1.80;1.00;;;;;;;;;;5094668;28;20035;-38
2024/03/09 08:30:19;;;;;;;1.67;1.05;;;;;;;;;;5094660;28;20024;-38
2024/03/09 08:32:47;;;;;;;2.97;1.10;;;;;;;;;;5094431;28;20041;-38
2024/03/09 08:35:18;;;;;;;2.38;1.35;;;;;;;;;;5094445;28;20054;-36
2024/03/09 08:37:46;;;;;;;1.98;1.20;;;;;;;;;;5085997;28;20071;-36
2024/03/09 08:40:17;;;;;;;1.73;0.90;;;;;;;;;;5094269;28;20127;-36
2024/03/09 08:42:48;;;;;;;2.17;0.93;;;;;;;;;;5094412;28;20161;-35
2024/03/09 08:45:15;;;;;;;2.85;1.17;;;;;;;;;;5094273;28;20040;-35
2024/03/09 08:47:42;;;;;;;4.53;1.10;;;;;;;;;;5094464;28;20020;-36
2024/03/09 08:50:12;;;;;;;2.65;1.08;;;;;;;;;;5094161;28;20031;-35
2024/03/09 08:52:40;;;;;;;1.65;0.90;;;;;;;;;;5094314;28;20035;-35
2024/03/09 08:55:10;;;;;;;1.98;0.90;;;;;;;;;;5094162;28;20031;-37
2024/03/09 08:57:38;;;;;;;1.73;0.90;;;;;;;;;;5096816;28;20494;-35
2024/03/09 09:00:06;;;;;;;2.38;0.80;;;;;;;;;;5114466;28;20027;-35
2024/03/09 09:02:33;;;;;;;2.97;0.88;;;;;;;;;;5114267;28;20408;-35
2024/03/09 09:05:00;;;;;;;1.70;0.82;;;;;;;;;;5114311;28;20069;-38
2024/03/09 09:07:27;;;;;;;1.92;0.90;;;;;;;;;;5114434;28;20035;-37
2024/03/09 09:09:55;;;;;;;3.22;1.00;;;;;;;;;;5114452;28;20177;-37
2024/03/09 09:12:22;;;;;;;1.63;0.80;;;;;;;;;;5114256;28;20114;-38
2024/03/09 09:14:49;;;;;;;2.40;1.10;;;;;;;;;;5114355;28;20042;-37
2024/03/09 09:17:16;;;;;;;1.30;0.75;;;;;;;;;;5114402;28;20382;-38
2024/03/09 09:19:43;;;;;;;1.58;1.00;;;;;;;;;;5114225;28;20048;-37
2024/03/09 09:22:10;;;;;;;3.70;1.10;;;;;;;;;;5095433;28;20412;-38
2024/03/09 09:24:37;;;;;;;2.45;0.93;;;;;;;;;;5113873;28;20028;-37
2024/03/09 09:27:04;;;;;;;3.55;0.90;;;;;;;;;;5114111;28;20559;-38
2024/03/09 09:29:34;;;;;;;2.03;0.98;;;;;;;;;;5114071;28;20027;-37
2024/03/09 09:32:03;;;;;;;2.67;0.90;;;;;;;;;;5095779;28;20378;-39
2024/03/09 09:34:33;;;;;;;2.33;0.95;;;;;;;;;;5113645;28;20065;-35
2024/03/09 09:37:00;;;;;;;1.48;0.80;;;;;;;;;;5113919;28;20042;-36
2024/03/09 09:39:33;;;;;;;1.30;0.70;;;;;;;;;;5113594;28;20024;-35
2024/03/09 09:42:01;;;;;;;2.33;0.80;;;;;;;;;;5113440;28;20473;-35
2024/03/09 09:44:28;;;;;;;3.17;0.88;;;;;;;;;;5099648;28;20024;-35
2024/03/09 09:46:58;;;;;;;2.95;0.85;;;;;;;;;;5093256;28;20027;-35
2024/03/09 09:49:28;;;;;;;2.47;0.88;;;;;;;;;;5093184;28;20035;-35
2024/03/09 09:51:59;;;;;;;1.42;0.75;;;;;;;;;;5093007;28;20712;-35
2024/03/09 09:54:29;;;;;;;4.30;0.65;;;;;;;;;;5092965;28;20029;-36
2024/03/09 09:56:56;;;;;;;2.65;0.80;;;;;;;;;;5093187;28;20039;-35
2024/03/09 09:59:29;;;;;;;2.97;0.82;;;;;;;;;;5092968;28;20036;-36
2024/03/09 10:01:56;;;;;;;2.20;0.93;;;;;;;;;;5092801;28;20515;-35
2024/03/09 10:04:23;;;;;;;3.92;0.90;;;;;;;;;;5092747;28;20038;-35
2024/03/09 10:06:50;;;;;;;3.30;0.93;;;;;;;;;;5092824;28;20104;-36
2024/03/09 10:09:30;;;;;;;3.58;0.70;;;;;;;;;;5092762;28;20107;-35
2024/03/09 10:11:57;;;;;;;2.83;0.70;;;;;;;;;;5092570;28;20064;-35
2024/03/09 10:14:28;;;;;;;4.05;0.80;;;;;;;;;;5092588;28;20446;-35
2024/03/09 10:16:55;;;;;;;2.63;0.85;;;;;;;;;;5092721;28;20398;-35
2024/03/09 10:19:22;;;;;;;2.97;0.82;;;;;;;;;;5092746;28;20016;-35
2024/03/09 10:21:52;;;;;;;1.85;0.80;;;;;;;;;;5092254;28;20020;-35
2024/03/09 10:24:19;;;;;;;0.80;0.60;;;;;;;;;;5092442;28;20036;-35
2024/03/09 10:26:46;;;;;;;2.70;0.90;;;;;;;;;;5092467;28;20028;-35
2024/03/09 10:29:19;;;;;;;2.33;0.90;;;;;;;;;;5091194;28;20358;-35
2024/03/09 10:31:50;;;;;;;3.72;0.80;;;;;;;;;;5092295;28;20389;-35
2024/03/09 10:34:18;;;;;;;3.78;0.80;;;;;;;;;;5091883;28;20047;-38
2024/03/09 10:36:45;;;;;;;5.25;0.90;;;;;;;;;;5091717;28;20038;-37
2024/03/09 10:39:19;;;;;;;3.42;0.98;;;;;;;;;;5092363;28;20512;-38
2024/03/09 10:41:48;;;;;;;2.60;1.00;;;;;;;;;;5092052;28;20186;-38
2024/03/09 10:44:15;;;;;;;3.13;0.80;;;;;;;;;;5092014;28;20366;-38
2024/03/09 10:46:42;;;;;;;2.88;0.85;;;;;;;;;;5092183;28;20032;-38
2024/03/09 10:49:12;;;;;;;3.78;0.80;;;;;;;;;;5092314;28;20028;-38
2024/03/09 10:51:59;;;;;;;1.52;0.80;;;;;;;;;;5091901;28;20038;-38
2024/03/09 10:54:34;;;;;;;4.07;0.90;;;;;;;;;;5073631;28;20042;-38
2024/03/09 10:57:03;;;;;;;4.40;0.90;;;;;;;;;;5092183;28;20046;-38
2024/03/09 10:59:31;;;;;;;2.38;0.70;;;;;;;;;;5092463;28;20027;-37
2024/03/09 11:02:00;;;;;;;4.07;0.90;;;;;;;;;;5091484;28;20036;-38
2024/03/09 11:04:28;;;;;;;2.80;0.93;;;;;;;;;;5091374;28;20028;-35
2024/03/09 11:06:55;;;;;;;9.45;1.10;;;;;;;;;;5091681;28;20032;-35
2024/03/09 11:09:31;;;;;;;4.38;0.90;;;;;;;;;;5091727;28;20067;-35
2024/03/09 11:11:59;;;;;;;6.22;1.08;;;;;;;;;;5091510;28;20036;-35
2024/03/09 11:14:26;;;;;;;4.97;1.08;;;;;;;;;;5091576;28;20020;-35
2024/03/09 11:16:55;;;;;;;3.55;0.90;;;;;;;;;;5090651;28;20493;-37
2024/03/09 11:19:26;;;;;;;8.95;1.10;;;;;;;;;;5091780;28;20031;-37
2024/03/09 11:21:54;;;;;;;4.88;0.90;;;;;;;;;;5091213;28;20036;-37
2024/03/09 11:24:21;;;;;;;6.15;1.08;;;;;;;;;;5091547;28;20024;-37
2024/03/09 11:26:58;;;;;;;4.70;0.85;;;;;;;;;;5091616;28;20474;-38
2024/03/09 11:29:28;;;;;;;3.40;0.68;;;;;;;;;;5091418;28;20028;-37
2024/03/09 11:31:58;;;;;;;3.08;0.80;;;;;;;;;;5091296;28;20432;-37
2024/03/09 11:34:26;;;;;;;3.15;0.73;;;;;;;;;;5091208;28;20044;-34
2024/03/09 11:36:55;;;;;;;2.72;0.82;;;;;;;;;;5091382;28;20129;-35
2024/03/09 11:39:28;;;;;;;5.43;1.00;;;;;;;;;;5091313;28;20115;-35
2024/03/09 11:41:57;;;;;;;4.32;0.65;;;;;;;;;;5091153;28;20036;-35
2024/03/09 11:44:24;;;;;;;3.60;0.80;;;;;;;;;;5091160;28;20132;-35
2024/03/09 11:46:51;;;;;;;6.00;0.88;;;;;;;;;;5091172;28;20125;-35
2024/03/09 11:49:18;;;;;;;3.67;0.90;;;;;;;;;;5094118;28;20452;-35
2024/03/09 11:51:46;;;;;;;9.27;1.00;;;;;;;;;;5095460;28;20055;-35
2024/03/09 11:54:13;;;;;;;1.35;0.60;;;;;;;;;;5095201;28;20060;-35
2024/03/09 11:56:41;;;;;;;5.40;1.13;;;;;;;;;;5095479;28;20032;-35
2024/03/09 11:59:10;;;;;;;5.07;0.77;;;;;;;;;;5095401;28;20024;-35
2024/03/09 12:01:39;;;;;;;4.28;0.77;;;;;;;;;;5095404;28;20071;-38
2024/03/09 12:04:07;;;;;;;2.10;0.70;;;;;;;;;;5094973;28;20040;-35
2024/03/09 12:06:34;;;;;;;4.95;0.60;;;;;;;;;;5095173;28;20062;-35
2024/03/09 12:09:01;;;;;;;3.72;0.85;;;;;;;;;;5095163;28;20116;-35
2024/03/09 12:11:29;;;;;;;5.00;1.00;;;;;;;;;;5094960;28;20081;-35
2024/03/09 12:13:57;;;;;;;3.78;0.80;;;;;;;;;;5095009;28;20056;-35
2024/03/09 12:16:26;;;;;;;5.47;0.80;;;;;;;;;;5094914;28;20036;-36
2024/03/09 12:18:54;;;;;;;5.60;0.80;;;;;;;;;;5094636;28;20073;-35
2024/03/09 12:21:22;;;;;;;3.28;0.80;;;;;;;;;;5094129;28;20036;-36
2024/03/09 12:23:53;;;;;;;5.40;0.90;;;;;;;;;;5094756;28;20028;-35
2024/03/09 12:26:21;;;;;;;3.35;1.00;;;;;;;;;;5094494;28;20036;-38
2024/03/09 12:28:48;;;;;;;1.83;0.73;;;;;;;;;;5076831;28;20027;-37
2024/03/09 12:31:16;;;;;;;5.38;1.02;;;;;;;;;;5087198;28;20048;-35
2024/03/09 12:33:46;;;;;;;3.35;1.00;;;;;;;;;;5074155;28;20048;-37
2024/03/09 12:36:17;;;;;;;5.93;1.10;;;;;;;;;;5074089;28;20036;-35
2024/03/09 12:38:45;;;;;;;5.25;0.68;;;;;;;;;;5074262;28;20435;-35
2024/03/09 12:41:27;;;;;;;5.72;0.90;;;;;;;;;;5074112;28;20060;-36
2024/03/09 12:43:55;;;;;;;4.57;0.90;;;;;;;;;;5074300;28;20115;-35
2024/03/09 12:46:32;;;;;;;3.80;0.88;;;;;;;;;;5056094;28;20037;-35
2024/03/09 12:49:12;;;;;;;3.78;1.15;;;;;;;;;;5094936;28;20044;-38
2024/03/09 12:51:42;;;;;;;7.38;1.15;;;;;;;;;;5094047;28;20090;-37
2024/03/09 12:54:12;;;;;;;3.30;0.75;;;;;;;;;;5094125;28;20044;-37
2024/03/09 12:56:41;;;;;;;6.03;0.82;;;;;;;;;;5094168;28;20032;-37
2024/03/09 12:59:11;;;;;;;6.43;0.80;;;;;;;;;;5094224;28;20085;-37
2024/03/09 13:01:44;;;;;;;4.95;1.20;;;;;;;;;;5093345;28;20027;-37
2024/03/09 13:04:11;;;;;;;4.07;0.82;;;;;;;;;;5093791;28;20486;-35
2024/03/09 13:06:42;;;;;;;8.57;1.10;;;;;;;;;;5093994;28;20028;-35
2024/03/09 13:09:15;;;;;;;3.30;1.00;;;;;;;;;;5087514;28;20051;-35
2024/03/09 13:11:42;;;;;;;3.03;0.95;;;;;;;;;;5091917;28;20028;-37
2024/03/09 13:14:09;;;;;;;5.32;0.90;;;;;;;;;;5093713;28;20062;-35
2024/03/09 13:16:40;;;;;;;3.88;0.60;;;;;;;;;;5086453;28;20032;-37
2024/03/09 13:19:10;;;;;;;4.22;1.15;;;;;;;;;;5074838;28;20127;-37
2024/03/09 13:21:37;;;;;;;6.93;1.17;;;;;;;;;;5082154;28;20511;-35
2024/03/09 13:24:08;;;;;;;3.80;0.95;;;;;;;;;;5080730;28;20116;-38
2024/03/09 13:26:37;;;;;;;3.83;0.90;;;;;;;;;;5084390;28;20032;-36
2024/03/09 13:29:06;;;;;;;4.10;1.10;;;;;;;;;;5091755;28;20040;-35
2024/03/09 13:31:37;;;;;;;4.20;0.98;;;;;;;;;;5091958;28;20028;-36
2024/03/09 13:34:09;;;;;;;2.55;0.80;;;;;;;;;;5090992;28;20043;-38
2024/03/09 13:36:36;;;;;;;5.50;1.08;;;;;;;;;;5093157;28;20040;-37
2024/03/09 13:39:12;;;;;;;6.97;1.13;;;;;;;;;;5093238;28;20085;-37
2024/03/09 13:41:42;;;;;;;5.90;1.10;;;;;;;;;;5092743;28;20493;-37
2024/03/09 13:44:12;;;;;;;4.03;1.10;;;;;;;;;;5092893;28;20043;-37
2024/03/09 13:46:41;;;;;;;8.30;1.23;;;;;;;;;;5092078;28;20047;-37
2024/03/09 13:49:12;;;;;;;5.32;1.20;;;;;;;;;;5090286;28;20100;-35
2024/03/09 13:51:39;;;;;;;5.20;0.95;;;;;;;;;;5090477;28;20031;-37
2024/03/09 13:54:06;;;;;;;5.28;0.90;;;;;;;;;;5090891;28;20032;-35
2024/03/09 13:56:33;;;;;;;14.48;1.45;;;;;;;;;;5092007;28;20031;-40
2024/03/09 13:59:01;;;;;;;8.40;1.15;;;;;;;;;;5090444;28;20028;-40
2024/03/09 14:01:29;;;;;;;7.38;1.20;;;;;;;;;;5077698;28;20081;-34
2024/03/09 14:03:57;;;;;;;6.38;1.20;;;;;;;;;;5101056;28;20043;-35
2024/03/09 14:06:25;;;;;;;4.25;1.00;;;;;;;;;;5102434;28;20046;-39
2024/03/09 14:08:53;;;;;;;4.57;1.00;;;;;;;;;;5102725;28;20036;-39
2024/03/09 14:11:21;;;;;;;3.42;1.35;;;;;;;;;;5097656;28;20028;-37
2024/03/09 14:13:48;;;;;;;6.40;0.90;;;;;;;;;;5105709;28;20555;-35
2024/03/09 14:16:18;;;;;;;5.63;0.85;;;;;;;;;;5091674;28;20031;-35
2024/03/09 14:18:49;;;;;;;3.50;0.90;;;;;;;;;;5069749;28;20062;-36
2024/03/09 14:21:28;;;;;;;4.37;0.60;;;;;;;;;;5080385;28;20490;-36
2024/03/09 14:23:55;;;;;;;5.70;1.00;;;;;;;;;;5083625;28;20122;-38
2024/03/09 14:26:26;;;;;;;5.03;1.25;;;;;;;;;;5092101;28;20599;-38
2024/03/09 14:28:54;;;;;;;8.55;1.30;;;;;;;;;;5092249;28;20036;-36
2024/03/09 14:31:30;;;;;;;9.93;1.05;;;;;;;;;;5092132;28;20068;-36
2024/03/09 14:34:01;;;;;;;9.02;1.20;;;;;;;;;;5091891;28;20056;-36
2024/03/09 14:36:31;;;;;;;4.40;1.30;;;;;;;;;;5091407;28;20097;-37
2024/03/09 14:38:59;;;;;;;4.78;1.33;;;;;;;;;;5091347;28;20028;-38
2024/03/09 14:41:26;;;;;;;3.63;0.90;;;;;;;;;;5092173;28;20016;-37
2024/03/09 14:43:53;;;;;;;3.63;1.00;;;;;;;;;;5091837;28;20054;-38
2024/03/09 14:46:20;;;;;;;5.82;1.08;;;;;;;;;;5091273;28;20036;-36
2024/03/09 14:48:51;;;;;;;3.03;1.02;;;;;;;;;;5091850;28;20054;-38
2024/03/09 14:51:22;;;;;;;4.32;0.80;;;;;;;;;;5091876;28;20418;-38